Time;durP1;ratioP1;P1;durP2;ratioP2;P2;SDS_P1;SDS_P2;PMS_P1;PMS_P2;Temp;Humidity;BMP_temperature;BMP_pressure;BME280_temperature;BME280_humidity;BME280_pressure;Samples;Min_cycle;Max_cycle;Signal;HPM_P1;HPM_P2
2021/09/10 02:46:09;;;;;;;14.45;5.07;;;13.70;91.20;;;;;;5372806;24;1103777;-80
2021/09/10 02:48:35;;;;;;;12.65;4.85;;;13.70;91.10;;;;;;4841464;29;20033;-80
2021/09/10 02:51:01;;;;;;;16.70;5.45;;;13.60;91.10;;;;;;4841916;29;20026;-80
2021/09/10 02:53:27;;;;;;;14.07;4.95;;;13.60;91.00;;;;;;4841823;29;20034;-80
2021/09/10 02:55:58;;;;;;;13.25;4.78;;;13.60;90.90;;;;;;4856762;29;20018;-80
2021/09/10 02:58:25;;;;;;;9.30;4.38;;;13.60;90.90;;;;;;4857198;29;20056;-81
2021/09/10 03:00:51;;;;;;;8.88;4.80;;;13.60;90.80;;;;;;4857234;29;20074;-80
2021/09/10 03:03:18;;;;;;;8.10;4.65;;;13.60;90.80;;;;;;4856869;29;20041;-81
2021/09/10 03:05:44;;;;;;;15.00;5.25;;;13.60;90.70;;;;;;4857179;29;20034;-81
2021/09/10 03:08:10;;;;;;;9.90;4.78;;;13.60;90.80;;;;;;4857495;29;20026;-81
2021/09/10 03:10:35;;;;;;;17.80;4.90;;;13.50;91.10;;;;;;4857047;29;20068;-81
2021/09/10 03:13:01;;;;;;;16.98;5.63;;;13.50;91.50;;;;;;4857258;29;20102;-81
2021/09/10 03:15:27;;;;;;;9.43;4.95;;;13.50;91.80;;;;;;4856828;29;20183;-81
2021/09/10 03:17:53;;;;;;;9.23;4.18;;;13.50;91.80;;;;;;4841616;29;20040;-81
2021/09/10 03:20:19;;;;;;;8.98;4.15;;;13.50;91.50;;;;;;4841697;29;20071;-80
2021/09/10 03:22:44;;;;;;;8.88;4.93;;;13.50;91.40;;;;;;4811827;29;20045;-80
2021/09/10 03:25:11;;;;;;;11.60;4.50;;;13.50;91.80;;;;;;4826333;29;20030;-81
2021/09/10 03:27:36;;;;;;;13.20;5.22;;;13.50;91.60;;;;;;4841833;29;20053;-81
2021/09/10 03:30:06;;;;;;;8.32;4.95;;;13.50;91.60;;;;;;4841903;29;20065;-81
2021/09/10 03:32:32;;;;;;;13.75;4.82;;;13.50;91.50;;;;;;4826605;29;20360;-81
2021/09/10 03:34:58;;;;;;;8.80;5.07;;;13.50;91.50;;;;;;4826412;29;20029;-81
2021/09/10 03:37:24;;;;;;;14.93;4.78;;;13.50;91.40;;;;;;4841367;29;20053;-81
2021/09/10 03:39:50;;;;;;;9.40;4.53;;;13.50;91.50;;;;;;4841476;29;20038;-80
2021/09/10 03:42:16;;;;;;;8.13;4.90;;;13.40;91.50;;;;;;4857921;29;20348;-81
2021/09/10 03:44:41;;;;;;;8.85;4.68;;;13.40;91.50;;;;;;4826150;29;20041;-80
2021/09/10 03:47:07;;;;;;;8.98;4.68;;;13.40;91.50;;;;;;4807361;29;20078;-81
2021/09/10 03:49:34;;;;;;;10.07;5.32;;;13.40;91.50;;;;;;4820361;29;20220;-81
2021/09/10 03:52:00;;;;;;;8.43;5.17;;;13.40;91.50;;;;;;4820082;29;20036;-81
2021/09/10 03:54:26;;;;;;;9.82;5.53;;;13.30;91.50;;;;;;4821228;29;20321;-81
2021/09/10 03:56:52;;;;;;;11.88;5.90;;;13.30;91.50;;;;;;4804016;29;20031;-81
2021/09/10 03:59:18;;;;;;;20.85;5.75;;;13.30;91.70;;;;;;4804867;29;20046;-81
2021/09/10 04:01:44;;;;;;;13.48;6.07;;;13.30;91.80;;;;;;4804446;29;20075;-81
2021/09/10 04:04:10;;;;;;;14.90;4.72;;;13.20;91.80;;;;;;4804937;29;20035;-81
2021/09/10 04:06:37;;;;;;;14.07;5.63;;;13.20;92.00;;;;;;4804659;29;20352;-81
2021/09/10 04:09:04;;;;;;;10.55;5.55;;;13.20;92.00;;;;;;4804984;29;20052;-81
2021/09/10 04:11:31;;;;;;;13.35;6.15;;;13.20;91.90;;;;;;4804767;29;20038;-81
2021/09/10 04:13:58;;;;;;;10.90;5.50;;;13.20;92.00;;;;;;4803675;29;20026;-81
2021/09/10 04:16:24;;;;;;;15.77;4.95;;;13.20;91.80;;;;;;4788406;29;20124;-81
2021/09/10 04:18:50;;;;;;;11.43;5.05;;;13.20;91.80;;;;;;4803008;29;20037;-80
2021/09/10 04:21:16;;;;;;;13.10;5.72;;;13.20;92.00;;;;;;4802699;29;20267;-81
2021/09/10 04:23:41;;;;;;;13.70;6.30;;;13.30;92.10;;;;;;4803045;29;20027;-81
2021/09/10 04:26:07;;;;;;;15.32;5.78;;;13.30;92.10;;;;;;4788332;29;20034;-81
2021/09/10 04:28:33;;;;;;;14.95;5.72;;;13.30;92.10;;;;;;4802736;29;20106;-81
2021/09/10 04:30:59;;;;;;;16.42;5.70;;;13.30;92.10;;;;;;4802849;29;20031;-81
2021/09/10 04:33:24;;;;;;;15.60;5.60;;;13.30;92.70;;;;;;4819120;29;20041;-81
2021/09/10 04:35:50;;;;;;;18.02;6.07;;;13.40;92.20;;;;;;4818085;29;20097;-80
2021/09/10 04:38:16;;;;;;;19.60;7.00;;;13.50;92.00;;;;;;4818065;29;20353;-81
2021/09/10 04:40:42;;;;;;;24.83;7.97;;;13.50;92.00;;;;;;4802940;29;20038;-81
2021/09/10 04:43:08;;;;;;;29.73;8.15;;;13.50;91.90;;;;;;4819138;29;20101;-81
2021/09/10 04:45:33;;;;;;;26.85;7.18;;;13.60;91.80;;;;;;4807940;29;20135;-80
2021/09/10 04:47:59;;;;;;;23.55;7.05;;;13.60;91.70;;;;;;4810502;29;20027;-81
2021/09/10 04:50:25;;;;;;;16.20;6.25;;;13.60;91.60;;;;;;4829073;29;20029;-81
2021/09/10 04:52:51;;;;;;;23.25;7.90;;;13.70;91.60;;;;;;4833731;29;20089;-81
2021/09/10 04:55:17;;;;;;;17.30;6.10;;;13.80;91.50;;;;;;4829172;29;20030;-81
2021/09/10 04:57:43;;;;;;;19.90;6.72;;;13.80;91.70;;;;;;4840772;29;20030;-81
2021/09/10 05:00:09;;;;;;;14.57;7.38;;;13.80;91.70;;;;;;4814209;29;20037;-81
2021/09/10 05:02:37;;;;;;;25.20;7.90;;;13.90;91.60;;;;;;4815916;29;20314;-81
2021/09/10 05:05:04;;;;;;;13.38;5.72;;;14.00;91.60;;;;;;4813383;29;20041;-81
2021/09/10 05:07:30;;;;;;;16.98;6.13;;;14.10;91.50;;;;;;4809512;29;20049;-81
2021/09/10 05:09:56;;;;;;;14.10;5.78;;;14.20;91.40;;;;;;4813461;29;20101;-81
2021/09/10 05:12:21;;;;;;;14.55;5.60;;;14.30;91.40;;;;;;4833474;29;20030;-81
2021/09/10 05:14:51;;;;;;;19.10;6.30;;;14.50;91.10;;;;;;4824299;29;20366;-81
2021/09/10 05:17:18;;;;;;;19.75;6.13;;;14.60;91.10;;;;;;4837660;29;20334;-81
2021/09/10 05:19:44;;;;;;;15.13;5.77;;;14.70;91.10;;;;;;4815616;29;20255;-81
2021/09/10 05:22:10;;;;;;;12.70;5.35;;;14.80;91.00;;;;;;4827888;29;20283;-81
2021/09/10 05:24:35;;;;;;;23.23;6.20;;;15.00;90.80;;;;;;4838240;29;20356;-81
2021/09/10 05:27:01;;;;;;;21.75;5.35;;;15.10;90.50;;;;;;4809548;29;20030;-81
2021/09/10 05:29:27;;;;;;;11.77;5.57;;;15.20;90.50;;;;;;4813966;29;20030;-81
2021/09/10 05:31:53;;;;;;;11.73;5.82;;;15.30;90.30;;;;;;4802197;29;20031;-81
2021/09/10 05:34:19;;;;;;;15.77;5.70;;;15.50;89.90;;;;;;4802414;29;20278;-81
2021/09/10 05:36:44;;;;;;;16.08;5.72;;;15.50;89.50;;;;;;4841379;29;20030;-81
2021/09/10 05:39:10;;;;;;;11.63;5.10;;;15.60;89.30;;;;;;4825033;29;20108;-81
2021/09/10 05:41:36;;;;;;;21.13;5.32;;;15.70;88.80;;;;;;4814372;29;20102;-81
2021/09/10 05:44:02;;;;;;;23.38;5.18;;;15.70;88.90;;;;;;4814022;29;20065;-81
2021/09/10 05:46:28;;;;;;;22.23;6.10;;;15.90;88.60;;;;;;4850761;29;20053;-81
2021/09/10 05:48:54;;;;;;;9.30;5.53;;;16.00;88.20;;;;;;4822722;29;20030;-82
2021/09/10 05:51:19;;;;;;;19.70;4.53;;;16.10;87.90;;;;;;4837318;29;20093;-81
2021/09/10 05:53:45;;;;;;;14.68;5.95;;;16.20;87.70;;;;;;4792089;29;20082;-81
2021/09/10 05:56:11;;;;;;;17.20;5.15;;;16.30;87.20;;;;;;4820388;29;20097;-81
2021/09/10 05:58:37;;;;;;;24.02;5.28;;;16.40;87.10;;;;;;4819633;29;20079;-82
2021/09/10 06:01:02;;;;;;;13.73;4.88;;;16.40;86.30;;;;;;4821446;29;20031;-81
2021/09/10 06:03:28;;;;;;;11.57;5.13;;;16.50;85.80;;;;;;4813414;29;20046;-82
2021/09/10 06:05:54;;;;;;;13.10;5.65;;;16.60;85.90;;;;;;4802906;29;20337;-81
2021/09/10 06:08:20;;;;;;;14.00;5.05;;;16.70;85.80;;;;;;4796233;29;20062;-80
2021/09/10 06:10:46;;;;;;;14.18;4.85;;;16.80;85.60;;;;;;4803086;29;20026;-78
2021/09/10 06:13:12;;;;;;;14.90;4.80;;;17.00;84.70;;;;;;4822247;29;20037;-79
2021/09/10 06:15:38;;;;;;;13.73;4.77;;;17.10;84.20;;;;;;4833887;29;20040;-79
2021/09/10 06:18:05;;;;;;;20.77;5.00;;;17.20;83.50;;;;;;4803793;29;20549;-79
2021/09/10 06:20:30;;;;;;;14.93;5.63;;;17.30;83.50;;;;;;4831030;29;20086;-79
2021/09/10 06:22:56;;;;;;;13.70;4.63;;;17.50;82.00;;;;;;4835906;29;20074;-79
2021/09/10 06:25:24;;;;;;;13.20;4.75;;;17.50;80.40;;;;;;4834081;29;20059;-79
2021/09/10 06:27:51;;;;;;;20.30;4.65;;;17.50;80.50;;;;;;4822694;29;20037;-79
2021/09/10 06:30:16;;;;;;;23.37;5.27;;;17.60;80.60;;;;;;4838548;29;20029;-80
2021/09/10 06:32:42;;;;;;;9.85;4.65;;;17.70;80.90;;;;;;4826764;29;20026;-79
2021/09/10 06:35:08;;;;;;;20.38;4.28;;;17.80;79.90;;;;;;4827668;29;20026;-79
2021/09/10 06:37:34;;;;;;;12.07;4.20;;;18.00;79.00;;;;;;4827588;29;20203;-80
2021/09/10 06:40:00;;;;;;;25.55;5.00;;;18.10;79.50;;;;;;4832225;29;20033;-79
2021/09/10 06:42:25;;;;;;;18.55;4.88;;;18.30;78.80;;;;;;4822303;29;20034;-79
2021/09/10 06:44:54;;;;;;;15.65;4.70;;;18.20;77.10;;;;;;4822775;29;20056;-79
2021/09/10 06:47:19;;;;;;;12.30;4.60;;;18.30;77.60;;;;;;4863064;29;20045;-79
2021/09/10 06:49:46;;;;;;;14.45;4.60;;;18.30;76.80;;;;;;4849862;29;20028;-79
2021/09/10 06:52:12;;;;;;;12.67;4.10;;;18.50;77.30;;;;;;4825304;29;20064;-79
2021/09/10 06:54:38;;;;;;;11.48;4.15;;;18.60;76.60;;;;;;4855041;29;20040;-79
2021/09/10 06:57:04;;;;;;;17.38;4.63;;;18.80;76.00;;;;;;4854512;29;20030;-79
2021/09/10 06:59:29;;;;;;;18.30;4.07;;;18.90;75.00;;;;;;4824193;29;20042;-80
2021/09/10 07:01:55;;;;;;;33.13;4.72;;;19.10;75.10;;;;;;4847834;29;20348;-79
2021/09/10 07:04:21;;;;;;;17.88;4.93;;;19.20;74.60;;;;;;4847746;29;20317;-79
2021/09/10 07:06:47;;;;;;;14.23;3.45;;;19.30;73.90;;;;;;4847847;29;20084;-80
2021/09/10 07:09:12;;;;;;;14.73;3.60;;;19.50;74.00;;;;;;4841859;29;20025;-79
2021/09/10 07:11:39;;;;;;;19.38;4.40;;;19.60;74.10;;;;;;4858606;29;20057;-79
2021/09/10 07:14:05;;;;;;;18.52;3.88;;;19.80;72.20;;;;;;4845158;29;20034;-79
2021/09/10 07:16:31;;;;;;;13.48;3.60;;;19.70;71.20;;;;;;4847106;29;20044;-79
2021/09/10 07:18:58;;;;;;;11.93;3.87;;;19.80;71.40;;;;;;4855287;29;20032;-79
2021/09/10 07:21:24;;;;;;;12.43;3.88;;;19.90;70.90;;;;;;4834870;29;20546;-80
2021/09/10 07:23:49;;;;;;;15.48;4.40;;;20.10;70.90;;;;;;4857506;29;20037;-79
2021/09/10 07:26:16;;;;;;;8.57;3.72;;;20.20;70.20;;;;;;4844809;29;20029;-79
2021/09/10 07:28:42;;;;;;;16.75;3.70;;;20.40;70.10;;;;;;4847236;29;20328;-79
2021/09/10 07:31:08;;;;;;;16.10;4.07;;;20.40;70.00;;;;;;4830172;29;20109;-79
2021/09/10 07:33:36;;;;;;;8.13;4.00;;;20.50;68.90;;;;;;4844010;29;20081;-77
2021/09/10 07:36:04;;;;;;;11.30;3.70;;;20.60;68.60;;;;;;4828886;29;20491;-78
2021/09/10 07:38:34;;;;;;;13.65;3.60;;;20.60;69.00;;;;;;4856357;29;20033;-84
2021/09/10 07:41:00;;;;;;;14.75;4.45;;;20.70;68.10;;;;;;4828521;29;20104;-83
2021/09/10 07:43:26;;;;;;;8.60;3.28;;;20.70;67.30;;;;;;4838697;29;20041;-83
2021/09/10 07:45:52;;;;;;;11.43;4.03;;;20.80;68.10;;;;;;4848446;29;20156;-83
2021/09/10 07:48:18;;;;;;;13.45;4.15;;;21.00;66.90;;;;;;4787300;29;20043;-83
2021/09/10 07:50:44;;;;;;;9.57;3.60;;;21.20;67.30;;;;;;4802247;29;20102;-83
2021/09/10 07:53:09;;;;;;;9.98;3.85;;;21.50;67.20;;;;;;4818213;29;20230;-83
2021/09/10 07:55:37;;;;;;;10.80;4.00;;;21.60;65.60;;;;;;4801904;29;20097;-83
2021/09/10 07:58:03;;;;;;;18.25;4.15;;;21.70;65.30;;;;;;4802221;29;20030;-83
2021/09/10 08:00:29;;;;;;;17.38;4.50;;;21.90;65.00;;;;;;4786818;29;20026;-83
2021/09/10 08:02:55;;;;;;;17.23;3.58;;;21.90;64.20;;;;;;4786922;29;20047;-83
2021/09/10 08:05:21;;;;;;;12.63;4.15;;;22.10;63.50;;;;;;4786721;29;20065;-83
2021/09/10 08:07:46;;;;;;;16.25;4.97;;;22.20;63.60;;;;;;4786625;29;20055;-83
2021/09/10 08:10:14;;;;;;;17.67;4.22;;;22.30;62.80;;;;;;4790105;29;20066;-83
2021/09/10 08:12:44;;;;;;;14.20;4.10;;;22.40;63.40;;;;;;4804368;29;20026;-83
2021/09/10 08:15:11;;;;;;;13.00;4.22;;;22.60;62.20;;;;;;4835727;29;20035;-83
2021/09/10 08:17:36;;;;;;;;;;;22.70;62.50;;;;;;4787421;29;20027;-82
2021/09/10 08:20:04;;;;;;;19.70;4.20;;;22.70;62.80;;;;;;4786454;29;19976;-83
2021/09/10 08:22:30;;;;;;;;;;;22.80;61.30;;;;;;4786686;29;20054;-83
2021/09/10 08:24:57;;;;;;;13.20;3.63;;;22.80;60.90;;;;;;4801159;29;20142;-82
2021/09/10 08:27:23;;;;;;;;;;;22.80;62.00;;;;;;4801679;29;20334;-82
2021/09/10 08:29:49;;;;;;;10.45;4.50;;;23.00;61.50;;;;;;4801188;29;19909;-82
2021/09/10 08:32:14;;;;;;;13.77;4.35;;;23.00;59.20;;;;;;4816200;29;20023;-82
2021/09/10 08:34:40;;;;;;;20.38;4.57;;;23.00;61.00;;;;;;4801032;29;20038;-82
2021/09/10 08:37:06;;;;;;;19.15;4.68;;;23.20;60.50;;;;;;4800808;29;20065;-82
2021/09/10 08:39:32;;;;;;;9.73;3.97;;;23.40;60.80;;;;;;4799800;29;20152;-82
2021/09/10 08:41:57;;;;;;;13.95;4.68;;;23.60;59.70;;;;;;4803946;29;20057;-82
2021/09/10 08:44:26;;;;;;;18.70;4.75;;;23.60;59.10;;;;;;4803276;29;20053;-82
2021/09/10 08:46:52;;;;;;;14.20;5.25;;;23.70;59.80;;;;;;4806805;29;20050;-82
2021/09/10 08:49:18;;;;;;;16.50;4.50;;;23.90;58.90;;;;;;4789578;29;20352;-82
2021/09/10 08:51:44;;;;;;;17.77;4.60;;;24.00;59.30;;;;;;4818705;29;20042;-82
2021/09/10 08:54:09;;;;;;;16.33;4.80;;;24.20;58.10;;;;;;4802854;29;20041;-82
2021/09/10 08:56:35;;;;;;;19.20;4.70;;;24.30;58.50;;;;;;4800615;29;20038;-82
2021/09/10 08:59:11;;;;;;;12.98;4.68;;;24.30;58.70;;;;;;4800371;29;20037;-82
2021/09/10 09:01:52;;;;;;;14.30;4.55;;;24.40;57.50;;;;;;4785487;29;20030;-82
2021/09/10 09:04:19;;;;;;;15.40;4.47;;;24.40;56.90;;;;;;4785550;29;20058;-82
2021/09/10 09:06:56;;;;;;;15.10;4.40;;;24.40;58.10;;;;;;4785534;29;20110;-81
2021/09/10 09:09:47;;;;;;;16.47;4.63;;;24.50;58.00;;;;;;4785582;29;20022;-82
2021/09/10 09:12:18;;;;;;;17.15;4.40;;;24.50;58.60;;;;;;4799727;29;20062;-81
2021/09/10 09:14:45;;;;;;;16.17;4.30;;;24.60;58.40;;;;;;4785392;29;20035;-81
2021/09/10 09:17:28;;;;;;;17.17;3.90;;;24.90;57.30;;;;;;4799161;29;20050;-82
2021/09/10 09:20:15;;;;;;;13.63;4.28;;;25.00;58.10;;;;;;4810078;29;20199;-81
2021/09/10 09:22:55;;;;;;;22.67;3.60;;;25.20;57.40;;;;;;4786122;29;20035;-81
2021/09/10 09:25:49;;;;;;;13.02;4.28;;;25.40;56.40;;;;;;4829286;29;20029;-82
2021/09/10 09:28:19;;;;;;;12.57;3.95;;;25.60;55.40;;;;;;4791184;30;20043;-82
2021/09/10 09:30:46;;;;;;;21.27;4.20;;;25.70;54.50;;;;;;4796892;30;20124;-79
2021/09/10 09:33:17;;;;;;;13.85;3.03;;;25.70;54.50;;;;;;4784172;30;20039;-79
2021/09/10 09:35:44;;;;;;;13.45;3.58;;;25.90;55.00;;;;;;4781853;30;20354;-82
2021/09/10 09:38:18;;;;;;;15.82;3.75;;;26.20;55.60;;;;;;4772966;30;20327;-82
2021/09/10 09:40:46;;;;;;;10.20;3.13;;;26.30;53.10;;;;;;4796619;30;20028;-82
2021/09/10 09:43:15;;;;;;;22.20;4.13;;;26.20;53.30;;;;;;4766288;30;20027;-81
2021/09/10 09:45:41;;;;;;;13.82;4.18;;;26.30;52.60;;;;;;4800080;29;20055;-82
2021/09/10 09:48:11;;;;;;;21.77;3.92;;;26.40;53.30;;;;;;4784427;29;20026;-81
2021/09/10 09:50:38;;;;;;;17.85;3.33;;;26.60;53.40;;;;;;4814502;29;20030;-82
2021/09/10 09:53:05;;;;;;;21.42;3.65;;;26.70;52.90;;;;;;4799417;29;20344;-81
2021/09/10 09:55:33;;;;;;;25.67;4.40;;;26.80;52.10;;;;;;4815855;29;20414;-81
2021/09/10 09:58:04;;;;;;;19.25;4.07;;;27.00;51.60;;;;;;4818460;29;20030;-81
2021/09/10 10:00:36;;;;;;;9.52;3.40;;;27.00;51.70;;;;;;4802868;29;20344;-81
2021/09/10 10:03:03;;;;;;;14.50;3.15;;;27.10;52.50;;;;;;4803303;29;20415;-81
2021/09/10 10:05:29;;;;;;;;;;;27.30;50.90;;;;;;4804072;29;20045;-81
2021/09/10 10:07:58;;;;;;;10.02;3.63;;;27.40;50.10;;;;;;4820300;29;19909;-81
2021/09/10 10:10:27;;;;;;;16.30;3.55;;;27.50;49.70;;;;;;4804085;29;20030;-81
2021/09/10 10:12:55;;;;;;;10.82;3.45;;;27.60;50.70;;;;;;4803667;29;20062;-81
2021/09/10 10:15:22;;;;;;;13.20;3.20;;;27.60;49.70;;;;;;4789220;29;20043;-81
2021/09/10 10:17:48;;;;;;;10.80;3.15;;;27.80;48.70;;;;;;4822367;29;20029;-81
2021/09/10 10:20:45;;;;;;;12.13;3.67;;;27.90;47.80;;;;;;4822045;29;20133;-81
2021/09/10 10:23:42;;;;;;;6.72;2.83;;;27.90;47.70;;;;;;4837550;29;20046;-81
2021/09/10 10:26:18;;;;;;;12.55;3.00;;;28.00;47.20;;;;;;4821843;29;20026;-81
2021/09/10 10:28:45;;;;;;;11.30;3.20;;;28.20;45.10;;;;;;4821486;29;20028;-81
2021/09/10 10:31:12;;;;;;;12.20;3.15;;;28.20;46.80;;;;;;4822061;29;20034;-81
2021/09/10 10:33:49;;;;;;;7.03;3.00;;;28.20;45.90;;;;;;4821824;29;20215;-81
2021/09/10 10:36:36;;;;;;;6.97;3.03;;;28.20;46.10;;;;;;4821237;29;20061;-81
2021/09/10 10:39:08;;;;;;;16.23;3.17;;;28.30;44.40;;;;;;4806467;29;20310;-80
2021/09/10 10:41:49;;;;;;;11.68;2.75;;;28.30;45.50;;;;;;4806440;29;20103;-81
2021/09/10 10:44:41;;;;;;;7.28;3.17;;;28.40;45.30;;;;;;4821756;29;20049;-81
2021/09/10 10:47:07;;;;;;;8.77;2.95;;;28.60;45.10;;;;;;4803279;29;20072;-81
2021/09/10 10:49:34;;;;;;;;;;;28.70;44.30;;;;;;4822084;29;20026;-81
2021/09/10 10:52:00;;;;;;;11.77;3.15;;;28.70;45.30;;;;;;4805843;29;19972;-82
2021/09/10 10:54:28;;;;;;;11.27;2.38;;;28.80;44.60;;;;;;4821088;29;20349;-82
2021/09/10 10:56:55;;;;;;;16.17;2.80;;;29.00;43.80;;;;;;4806002;29;20042;-82
2021/09/10 10:59:25;;;;;;;11.45;3.00;;;29.00;44.20;;;;;;4836154;29;20030;-82
2021/09/10 11:02:31;;;;;;;11.45;2.80;;;29.10;43.90;;;;;;4820875;29;20087;-82
2021/09/10 11:05:08;;;;;;;7.10;2.17;;;29.20;43.50;;;;;;4820951;29;20222;-82
2021/09/10 11:07:34;;;;;;;;;;;29.20;43.40;;;;;;4805974;29;20086;-81
2021/09/10 11:10:13;;;;;;;18.38;3.22;;;29.20;43.90;;;;;;4821299;29;20104;-82
2021/09/10 11:12:40;;;;;;;46.08;7.82;;;29.30;43.20;;;;;;4837047;29;20034;-82
2021/09/10 11:15:18;;;;;;;13.48;3.17;;;29.30;43.20;;;;;;4821162;29;20083;-82
2021/09/10 11:17:50;;;;;;;8.00;2.85;;;29.30;42.60;;;;;;4805978;29;20038;-81
2021/09/10 11:20:28;;;;;;;12.10;2.63;;;29.30;42.50;;;;;;4820620;29;20321;-82
2021/09/10 11:22:53;;;;;;;17.63;3.30;;;29.30;42.60;;;;;;4806153;29;20030;-82
2021/09/10 11:25:19;;;;;;;39.10;6.23;;;29.30;42.20;;;;;;4805691;29;20087;-82
2021/09/10 11:27:45;;;;;;;14.47;2.83;;;29.30;42.20;;;;;;4806020;29;20034;-82
2021/09/10 11:30:13;;;;;;;19.55;4.28;;;29.30;42.40;;;;;;4820868;29;20026;-82
2021/09/10 11:32:39;;;;;;;23.23;3.67;;;29.30;42.10;;;;;;4820759;29;20034;-82
2021/09/10 11:35:17;;;;;;;19.00;3.25;;;29.40;41.90;;;;;;4791095;29;20054;-82
2021/09/10 11:37:58;;;;;;;9.95;2.80;;;29.40;42.10;;;;;;4820398;29;20038;-82
2021/09/10 11:40:38;;;;;;;7.57;2.90;;;29.40;41.90;;;;;;4821018;29;20038;-82
2021/09/10 11:43:13;;;;;;;16.20;2.90;;;29.40;40.30;;;;;;4817632;29;20050;-81
2021/09/10 11:45:43;;;;;;;27.42;4.18;;;29.50;41.40;;;;;;4810852;29;20289;-82
2021/09/10 11:48:13;;;;;;;36.88;7.15;;;29.50;41.20;;;;;;4853812;29;20022;-81
2021/09/10 11:50:54;;;;;;;9.43;3.25;;;29.50;42.60;;;;;;4853801;29;20026;-82
2021/09/10 11:53:28;;;;;;;14.40;3.22;;;29.50;42.10;;;;;;4851551;29;20161;-81
2021/09/10 11:55:57;;;;;;;7.10;2.83;;;29.50;41.80;;;;;;4854869;29;20206;-81
2021/09/10 11:58:33;;;;;;;29.17;5.43;;;29.50;41.70;;;;;;4838621;29;20032;-81
2021/09/10 12:01:19;;;;;;;11.68;2.70;;;29.70;40.30;;;;;;4838754;29;20053;-82
2021/09/10 12:04:19;;;;;;;30.08;4.63;;;29.80;39.90;;;;;;4838220;29;20567;-81
2021/09/10 12:06:52;;;;;;;11.90;3.10;;;29.60;39.00;;;;;;4765037;30;20047;-82
2021/09/10 12:09:24;;;;;;;22.80;3.42;;;29.40;38.80;;;;;;4791509;30;20027;-81
2021/09/10 12:12:05;;;;;;;7.65;3.15;;;29.10;39.90;;;;;;4767900;30;20035;-81
2021/09/10 12:14:57;;;;;;;8.18;2.70;;;29.00;39.20;;;;;;4763539;30;20261;-81
2021/09/10 12:17:24;;;;;;;14.18;3.28;;;28.90;39.80;;;;;;4769524;30;20040;-81
2021/09/10 12:20:08;;;;;;;16.23;3.30;;;29.10;39.30;;;;;;4761987;30;20058;-82
2021/09/10 12:22:42;;;;;;;9.88;3.10;;;29.10;39.60;;;;;;4777945;30;20226;-81
2021/09/10 12:25:39;;;;;;;20.98;3.50;;;29.20;39.40;;;;;;4782556;30;20062;-81
2021/09/10 12:28:10;;;;;;;6.38;2.92;;;29.20;39.40;;;;;;4767400;30;20124;-82
2021/09/10 12:30:38;;;;;;;11.13;2.70;;;29.30;37.60;;;;;;4763847;30;20108;-81
2021/09/10 12:33:06;;;;;;;8.52;2.92;;;29.30;38.60;;;;;;4782544;30;20038;-81
2021/09/10 12:35:33;;;;;;;10.60;2.95;;;29.40;38.40;;;;;;4782611;30;20027;-81
2021/09/10 12:38:03;;;;;;;10.35;2.92;;;29.60;38.90;;;;;;4778176;30;20035;-81
2021/09/10 12:40:39;;;;;;;11.35;2.47;;;29.60;37.50;;;;;;4764849;30;20464;-81
2021/09/10 12:43:08;;;;;;;14.45;3.85;;;29.70;37.20;;;;;;4798073;29;20037;-81
2021/09/10 12:45:35;;;;;;;7.32;2.47;;;29.60;37.00;;;;;;4864006;29;20085;-81
2021/09/10 12:48:06;;;;;;;10.88;2.22;;;29.80;36.10;;;;;;4846460;29;20022;-81
2021/09/10 12:50:33;;;;;;;7.63;3.22;;;29.80;36.80;;;;;;4800929;29;20029;-81
2021/09/10 12:53:00;;;;;;;24.00;3.03;;;29.80;36.20;;;;;;4771478;29;20234;-81
2021/09/10 12:55:27;;;;;;;8.60;2.55;;;29.80;36.30;;;;;;4800930;29;20069;-82
2021/09/10 12:57:53;;;;;;;7.55;2.70;;;29.90;35.70;;;;;;4786018;29;20038;-81
2021/09/10 13:00:20;;;;;;;12.95;3.08;;;30.00;36.40;;;;;;4801302;29;20026;-81
2021/09/10 13:02:47;;;;;;;5.47;2.60;;;30.10;35.00;;;;;;4800820;29;20031;-82
2021/09/10 13:05:15;;;;;;;8.30;2.35;;;30.10;36.20;;;;;;4785785;29;20057;-81
2021/09/10 13:07:43;;;;;;;9.33;2.97;;;30.00;35.00;;;;;;4790938;29;20321;-82
2021/09/10 13:10:11;;;;;;;5.50;2.20;;;29.90;35.20;;;;;;4800301;29;20038;-81
2021/09/10 13:12:38;;;;;;;7.30;2.47;;;30.00;35.60;;;;;;4800748;29;20029;-82
2021/09/10 13:15:05;;;;;;;12.98;2.80;;;30.10;34.90;;;;;;4800312;29;20035;-82
2021/09/10 13:17:32;;;;;;;9.23;2.00;;;30.10;34.00;;;;;;4815225;29;20097;-81
2021/09/10 13:19:58;;;;;;;13.70;2.90;;;30.00;33.10;;;;;;4785376;29;20035;-81
2021/09/10 13:22:24;;;;;;;5.75;2.70;;;30.00;33.50;;;;;;4838595;29;20026;-82
2021/09/10 13:24:51;;;;;;;4.07;1.85;;;30.00;35.20;;;;;;4843878;29;20040;-82
2021/09/10 13:27:19;;;;;;;7.68;2.15;;;29.90;34.50;;;;;;4816836;29;20318;-82
2021/09/10 13:29:46;;;;;;;5.05;2.15;;;29.90;34.00;;;;;;4800784;29;20080;-82
2021/09/10 13:32:13;;;;;;;;;;;30.00;34.20;;;;;;4786328;29;20027;-82
2021/09/10 13:34:39;;;;;;;7.05;2.35;;;29.90;33.40;;;;;;4815187;29;19936;-81
2021/09/10 13:37:11;;;;;;;10.60;2.73;;;29.90;34.00;;;;;;4800486;29;20042;-82
2021/09/10 13:39:45;;;;;;;10.50;2.50;;;29.90;34.40;;;;;;4801486;29;20093;-81
2021/09/10 13:42:13;;;;;;;8.43;2.70;;;29.90;32.70;;;;;;4800272;29;20035;-81
2021/09/10 13:44:42;;;;;;;3.70;2.38;;;29.90;34.40;;;;;;4800023;29;20042;-81
2021/09/10 13:47:08;;;;;;;11.18;2.22;;;29.90;33.60;;;;;;4813304;29;20051;-81
2021/09/10 13:49:34;;;;;;;11.83;3.00;;;29.80;33.00;;;;;;4799874;29;20378;-82
2021/09/10 13:52:02;;;;;;;4.70;2.72;;;29.80;33.10;;;;;;4800518;29;20019;-81
2021/09/10 13:54:28;;;;;;;7.40;2.22;;;29.80;33.40;;;;;;4800395;29;20263;-81
2021/09/10 13:56:55;;;;;;;12.40;2.42;;;29.80;33.60;;;;;;4804787;29;20046;-82
2021/09/10 13:59:22;;;;;;;5.55;2.10;;;29.80;33.10;;;;;;4810155;29;20034;-81
2021/09/10 14:01:49;;;;;;;13.45;2.25;;;29.60;32.40;;;;;;4787407;29;20041;-78
2021/09/10 14:04:16;;;;;;;;;;;29.50;32.80;;;;;;4819950;29;20042;-79
2021/09/10 14:06:42;;;;;;;6.03;2.30;;;29.50;33.40;;;;;;4819010;29;19909;-83
2021/09/10 14:09:08;;;;;;;3.80;2.00;;;29.50;32.20;;;;;;4802965;29;20050;-81
2021/09/10 14:11:35;;;;;;;6.20;2.30;;;29.40;32.50;;;;;;4802018;29;20019;-82
2021/09/10 14:14:02;;;;;;;9.40;2.58;;;29.30;32.90;;;;;;4786737;29;20272;-80
2021/09/10 14:16:29;;;;;;;7.65;2.60;;;29.30;32.60;;;;;;4794394;29;20045;-80
2021/09/10 14:18:55;;;;;;;5.82;2.28;;;29.20;32.70;;;;;;4818979;29;20163;-81
2021/09/10 14:21:22;;;;;;;5.80;2.47;;;29.20;32.70;;;;;;4816223;29;20334;-81
2021/09/10 14:23:48;;;;;;;4.07;2.20;;;29.20;33.40;;;;;;4789937;29;20039;-81
2021/09/10 14:26:18;;;;;;;6.38;2.47;;;29.30;32.30;;;;;;4800491;29;20026;-81
2021/09/10 14:28:45;;;;;;;3.85;1.90;;;29.40;32.20;;;;;;4802937;29;20038;-80
2021/09/10 14:31:10;;;;;;;5.18;2.15;;;29.20;32.40;;;;;;4818214;29;20030;-81
2021/09/10 14:33:37;;;;;;;9.60;2.58;;;29.20;32.60;;;;;;4807557;29;20334;-81
2021/09/10 14:36:04;;;;;;;11.10;2.35;;;29.20;32.50;;;;;;4836248;29;20044;-81
2021/09/10 14:38:29;;;;;;;6.70;2.30;;;29.30;32.10;;;;;;4812940;29;20111;-81
2021/09/10 14:40:55;;;;;;;8.25;2.75;;;29.20;32.10;;;;;;4817366;29;20019;-81
2021/09/10 14:43:21;;;;;;;3.87;1.90;;;29.20;31.80;;;;;;4794925;29;20030;-81
2021/09/10 14:45:46;;;;;;;6.77;2.50;;;29.10;32.40;;;;;;4791711;29;20073;-81
2021/09/10 14:48:12;;;;;;;11.68;2.20;;;29.10;33.20;;;;;;4821657;29;20314;-81
2021/09/10 14:50:38;;;;;;;11.13;2.38;;;29.10;32.30;;;;;;4821545;29;20031;-81
2021/09/10 14:53:04;;;;;;;5.73;2.17;;;29.10;31.60;;;;;;4821367;29;20136;-81
2021/09/10 14:55:30;;;;;;;7.57;1.97;;;29.10;31.40;;;;;;4824468;29;20375;-81
2021/09/10 14:57:59;;;;;;;7.72;2.20;;;29.00;32.30;;;;;;4823599;29;20036;-81
2021/09/10 15:00:25;;;;;;;5.18;2.03;;;29.00;32.70;;;;;;4808237;29;20213;-81
2021/09/10 15:02:51;;;;;;;6.57;2.22;;;28.90;32.90;;;;;;4802182;29;20109;-81
2021/09/10 15:05:17;;;;;;;6.63;2.27;;;28.90;32.90;;;;;;4823563;29;20030;-81
2021/09/10 15:07:43;;;;;;;8.60;2.80;;;28.90;32.90;;;;;;4806509;29;20317;-81
2021/09/10 15:10:12;;;;;;;4.20;2.27;;;28.90;31.90;;;;;;4806332;29;20027;-81
2021/09/10 15:12:39;;;;;;;8.13;2.25;;;28.80;32.60;;;;;;4806109;29;20060;-81
2021/09/10 15:15:09;;;;;;;9.18;2.28;;;28.80;33.60;;;;;;4808379;29;20201;-81
2021/09/10 15:17:35;;;;;;;9.65;2.83;;;28.70;33.20;;;;;;4792172;29;20027;-81
2021/09/10 15:20:03;;;;;;;5.50;1.92;;;28.70;32.70;;;;;;4810698;29;20035;-80
2021/09/10 15:22:29;;;;;;;5.32;1.98;;;28.60;32.70;;;;;;4802873;29;20061;-81
2021/09/10 15:24:55;;;;;;;16.98;2.67;;;28.50;32.80;;;;;;4821513;29;20027;-80
2021/09/10 15:27:21;;;;;;;12.05;2.30;;;28.40;32.40;;;;;;4820939;29;20322;-80
2021/09/10 15:29:47;;;;;;;5.63;1.80;;;28.40;32.70;;;;;;4836956;29;20041;-81
2021/09/10 15:32:13;;;;;;;6.55;2.10;;;28.30;34.00;;;;;;4820880;29;20279;-82
2021/09/10 15:34:38;;;;;;;5.10;1.83;;;28.30;34.00;;;;;;4824472;29;20370;-81